sensor_id;sensor_type;location;lat;lon;timestamp;pressure;altitude;pressure_sealevel;temperature;humidity
17505;BME280;8870;50.950;11.762;2023-04-26T00:03:11;98291.66;;;4.55;100.00
17505;BME280;8870;50.950;11.762;2023-04-26T00:08:32;98289.22;;;4.52;100.00
17505;BME280;8870;50.950;11.762;2023-04-26T00:14:04;98283.53;;;4.45;100.00
17505;BME280;8870;50.950;11.762;2023-04-26T00:19:23;98291.09;;;4.40;100.00
17505;BME280;8870;50.950;11.762;2023-04-26T00:24:57;98287.09;;;4.34;100.00
17505;BME280;8870;50.950;11.762;2023-04-26T00:30:16;98293.78;;;4.28;100.00
17505;BME280;8870;50.950;11.762;2023-04-26T00:35:49;98295.25;;;4.21;100.00
17505;BME280;8870;50.950;11.762;2023-04-26T00:41:10;98304.47;;;4.17;100.00
17505;BME280;8870;50.950;11.762;2023-04-26T00:46:42;98306.16;;;4.18;100.00
17505;BME280;8870;50.950;11.762;2023-04-26T00:52:01;98307.50;;;4.12;100.00
17505;BME280;8870;50.950;11.762;2023-04-26T00:57:35;98309.56;;;4.09;100.00
17505;BME280;8870;50.950;11.762;2023-04-26T01:03:06;98300.81;;;4.07;100.00
17505;BME280;8870;50.950;11.762;2023-04-26T01:08:24;98309.94;;;4.04;100.00
17505;BME280;8870;50.950;11.762;2023-04-26T01:13:58;98316.47;;;4.00;100.00
17505;BME280;8870;50.950;11.762;2023-04-26T01:19:17;98314.78;;;3.99;100.00
17505;BME280;8870;50.950;11.762;2023-04-26T01:24:54;98316.25;;;3.92;100.00
17505;BME280;8870;50.950;11.762;2023-04-26T01:30:13;98317.34;;;3.89;100.00
17505;BME280;8870;50.950;11.762;2023-04-26T01:35:44;98316.25;;;3.80;100.00
17505;BME280;8870;50.950;11.762;2023-04-26T01:41:06;98321.44;;;3.70;100.00
17505;BME280;8870;50.950;11.762;2023-04-26T01:46:31;98324.81;;;3.61;100.00
17505;BME280;8870;50.950;11.762;2023-04-26T01:51:55;98320.09;;;3.53;100.00
17505;BME280;8870;50.950;11.762;2023-04-26T01:57:16;98322.41;;;3.47;100.00
17505;BME280;8870;50.950;11.762;2023-04-26T02:02:47;98321.91;;;3.42;100.00
17505;BME280;8870;50.950;11.762;2023-04-26T02:08:05;98320.19;;;3.41;100.00
17505;BME280;8870;50.950;11.762;2023-04-26T02:13:39;98320.91;;;3.31;100.00
17505;BME280;8870;50.950;11.762;2023-04-26T02:18:58;98337.34;;;3.25;100.00
17505;BME280;8870;50.950;11.762;2023-04-26T02:24:31;98331.50;;;3.08;100.00
17505;BME280;8870;50.950;11.762;2023-04-26T02:29:52;98329.31;;;3.14;100.00
17505;BME280;8870;50.950;11.762;2023-04-26T02:35:24;98331.50;;;3.08;100.00
17505;BME280;8870;50.950;11.762;2023-04-26T02:40:42;98332.56;;;3.06;100.00
17505;BME280;8870;50.950;11.762;2023-04-26T02:46:17;98330.59;;;2.97;100.00
17505;BME280;8870;50.950;11.762;2023-04-26T02:51:36;98320.66;;;2.87;100.00
17505;BME280;8870;50.950;11.762;2023-04-26T02:57:07;98319.66;;;2.77;100.00
17505;BME280;8870;50.950;11.762;2023-04-26T03:02:41;98325.13;;;2.62;100.00
17505;BME280;8870;50.950;11.762;2023-04-26T03:07:59;98330.06;;;2.56;100.00
17505;BME280;8870;50.950;11.762;2023-04-26T03:13:30;98330.47;;;2.38;100.00
17505;BME280;8870;50.950;11.762;2023-04-26T03:18:51;98333.69;;;2.18;100.00
17505;BME280;8870;50.950;11.762;2023-04-26T03:24:22;98337.88;;;1.96;100.00
17505;BME280;8870;50.950;11.762;2023-04-26T03:29:41;98339.69;;;1.82;100.00
17505;BME280;8870;50.950;11.762;2023-04-26T03:35:15;98343.00;;;1.73;100.00
17505;BME280;8870;50.950;11.762;2023-04-26T03:40:34;98339.59;;;1.71;100.00
17505;BME280;8870;50.950;11.762;2023-04-26T03:46:05;98329.44;;;1.65;100.00
17505;BME280;8870;50.950;11.762;2023-04-26T03:51:26;98341.31;;;1.59;100.00
17505;BME280;8870;50.950;11.762;2023-04-26T03:56:57;98344.19;;;1.56;100.00
17505;BME280;8870;50.950;11.762;2023-04-26T04:02:16;98347.91;;;1.53;100.00
17505;BME280;8870;50.950;11.762;2023-04-26T04:07:50;98351.31;;;1.56;100.00
17505;BME280;8870;50.950;11.762;2023-04-26T04:13:11;98355.56;;;1.58;100.00
17505;BME280;8870;50.950;11.762;2023-04-26T04:18:42;98363.19;;;1.63;100.00
17505;BME280;8870;50.950;11.762;2023-04-26T04:24:04;98358.00;;;1.61;100.00
17505;BME280;8870;50.950;11.762;2023-04-26T04:29:36;98348.53;;;1.57;100.00
17505;BME280;8870;50.950;11.762;2023-04-26T04:34:55;98360.44;;;1.51;100.00
17505;BME280;8870;50.950;11.762;2023-04-26T04:40:34;98365.00;;;1.49;100.00
17505;BME280;8870;50.950;11.762;2023-04-26T04:45:53;98379.22;;;1.48;100.00
17505;BME280;8870;50.950;11.762;2023-04-26T04:51:26;98387.44;;;1.45;100.00
17505;BME280;8870;50.950;11.762;2023-04-26T04:56:51;98388.25;;;1.46;100.00
17505;BME280;8870;50.950;11.762;2023-04-26T05:02:27;98391.66;;;1.48;100.00
17505;BME280;8870;50.950;11.762;2023-04-26T05:07:46;98401.03;;;1.53;100.00
17505;BME280;8870;50.950;11.762;2023-04-26T05:13:21;98407.59;;;1.61;100.00
17505;BME280;8870;50.950;11.762;2023-04-26T05:18:40;98407.00;;;1.70;100.00
17505;BME280;8870;50.950;11.762;2023-04-26T05:24:14;98411.66;;;1.79;100.00
17505;BME280;8870;50.950;11.762;2023-04-26T05:29:37;98406.53;;;1.89;100.00
17505;BME280;8870;50.950;11.762;2023-04-26T05:35:27;98417.28;;;2.00;100.00
17505;BME280;8870;50.950;11.762;2023-04-26T05:40:51;98424.50;;;2.11;100.00
17505;BME280;8870;50.950;11.762;2023-04-26T05:46:27;98427.03;;;2.26;100.00
17505;BME280;8870;50.950;11.762;2023-04-26T05:51:45;98435.84;;;2.39;100.00
17505;BME280;8870;50.950;11.762;2023-04-26T05:57:17;98436.34;;;2.57;100.00
17505;BME280;8870;50.950;11.762;2023-04-26T06:02:51;98429.06;;;2.72;100.00
17505;BME280;8870;50.950;11.762;2023-04-26T06:08:15;98427.38;;;2.96;100.00
17505;BME280;8870;50.950;11.762;2023-04-26T06:13:49;98427.44;;;3.31;100.00
17505;BME280;8870;50.950;11.762;2023-04-26T06:19:13;98420.22;;;3.45;100.00
17505;BME280;8870;50.950;11.762;2023-04-26T06:24:45;98418.56;;;3.66;100.00
17505;BME280;8870;50.950;11.762;2023-04-26T06:30:08;98426.47;;;3.79;100.00
17505;BME280;8870;50.950;11.762;2023-04-26T06:35:44;98427.94;;;3.95;100.00
17505;BME280;8870;50.950;11.762;2023-04-26T06:41:04;98439.47;;;4.07;100.00
17505;BME280;8870;50.950;11.762;2023-04-26T06:46:36;98435.25;;;4.27;100.00
17505;BME280;8870;50.950;11.762;2023-04-26T06:52:03;98445.31;;;4.35;100.00
17505;BME280;8870;50.950;11.762;2023-04-26T06:57:37;98434.50;;;4.47;100.00
17505;BME280;8870;50.950;11.762;2023-04-26T07:02:59;98429.28;;;4.69;100.00
17505;BME280;8870;50.950;11.762;2023-04-26T07:08:34;98431.22;;;4.67;100.00
17505;BME280;8870;50.950;11.762;2023-04-26T07:13:54;98437.50;;;4.77;100.00
17505;BME280;8870;50.950;11.762;2023-04-26T07:19:25;98430.47;;;4.87;100.00
17505;BME280;8870;50.950;11.762;2023-04-26T07:24:47;98438.66;;;5.07;100.00
17505;BME280;8870;50.950;11.762;2023-04-26T07:30:18;98430.44;;;4.99;100.00
17505;BME280;8870;50.950;11.762;2023-04-26T07:35:37;98431.03;;;5.35;100.00
17505;BME280;8870;50.950;11.762;2023-04-26T07:41:10;98427.06;;;5.29;100.00
17505;BME280;8870;50.950;11.762;2023-04-26T07:46:32;98432.47;;;5.39;100.00
17505;BME280;8870;50.950;11.762;2023-04-26T07:52:03;98433.00;;;5.33;100.00
17505;BME280;8870;50.950;11.762;2023-04-26T07:57:31;98431.00;;;5.46;100.00
17505;BME280;8870;50.950;11.762;2023-04-26T08:03:02;98428.06;;;5.70;100.00
17505;BME280;8870;50.950;11.762;2023-04-26T08:08:22;98444.63;;;5.85;100.00
17505;BME280;8870;50.950;11.762;2023-04-26T08:13:56;98437.53;;;5.75;100.00
17505;BME280;8870;50.950;11.762;2023-04-26T08:19:15;98437.13;;;5.58;100.00
17505;BME280;8870;50.950;11.762;2023-04-26T08:24:48;98434.97;;;5.73;100.00
17505;BME280;8870;50.950;11.762;2023-04-26T08:30:10;98439.63;;;6.13;100.00
17505;BME280;8870;50.950;11.762;2023-04-26T08:35:42;98433.75;;;6.51;100.00
17505;BME280;8870;50.950;11.762;2023-04-26T08:41:01;98454.94;;;6.11;100.00
17505;BME280;8870;50.950;11.762;2023-04-26T08:46:46;98446.47;;;6.06;100.00
17505;BME280;8870;50.950;11.762;2023-04-26T08:52:10;98450.28;;;5.92;100.00
17505;BME280;8870;50.950;11.762;2023-04-26T08:57:45;98450.44;;;5.91;100.00
17505;BME280;8870;50.950;11.762;2023-04-26T09:03:21;98445.16;;;6.00;100.00
17505;BME280;8870;50.950;11.762;2023-04-26T09:08:41;98444.13;;;6.44;100.00
17505;BME280;8870;50.950;11.762;2023-04-26T09:14:14;98443.06;;;6.56;100.00
17505;BME280;8870;50.950;11.762;2023-04-26T09:19:38;98435.97;;;6.45;100.00
17505;BME280;8870;50.950;11.762;2023-04-26T09:25:11;98433.91;;;6.59;100.00
17505;BME280;8870;50.950;11.762;2023-04-26T09:30:37;98431.88;;;6.92;100.00
17505;BME280;8870;50.950;11.762;2023-04-26T09:36:14;98434.31;;;6.54;100.00
17505;BME280;8870;50.950;11.762;2023-04-26T09:41:42;98432.88;;;6.50;86.50
17505;BME280;8870;50.950;11.762;2023-04-26T09:47:13;98440.38;;;6.56;99.11
17505;BME280;8870;50.950;11.762;2023-04-26T09:52:41;98438.91;;;6.42;100.00
17505;BME280;8870;50.950;11.762;2023-04-26T09:58:12;98444.75;;;6.26;100.00
17505;BME280;8870;50.950;11.762;2023-04-26T10:03:44;98443.34;;;6.32;100.00
17505;BME280;8870;50.950;11.762;2023-04-26T10:09:06;98434.81;;;6.38;100.00
17505;BME280;8870;50.950;11.762;2023-04-26T10:14:39;98451.13;;;6.35;87.79
17505;BME280;8870;50.950;11.762;2023-04-26T10:19:59;98455.72;;;6.23;90.01
17505;BME280;8870;50.950;11.762;2023-04-26T10:25:38;98453.63;;;6.27;100.00
17505;BME280;8870;50.950;11.762;2023-04-26T10:30:58;98454.78;;;6.34;100.00
17505;BME280;8870;50.950;11.762;2023-04-26T10:36:30;98452.69;;;6.69;100.00
17505;BME280;8870;50.950;11.762;2023-04-26T10:42:18;98440.09;;;7.10;100.00
17505;BME280;8870;50.950;11.762;2023-04-26T10:48:12;98443.75;;;7.09;93.02
17505;BME280;8870;50.950;11.762;2023-04-26T10:53:58;98436.84;;;7.06;81.57
17505;BME280;8870;50.950;11.762;2023-04-26T10:59:29;98437.28;;;7.51;76.37
17505;BME280;8870;50.950;11.762;2023-04-26T11:05:09;98433.59;;;7.71;64.66
17505;BME280;8870;50.950;11.762;2023-04-26T11:10:29;98415.66;;;7.92;65.93
17505;BME280;8870;50.950;11.762;2023-04-26T11:16:03;98427.53;;;7.89;71.37
17505;BME280;8870;50.950;11.762;2023-04-26T11:21:22;98426.00;;;7.37;72.72
17505;BME280;8870;50.950;11.762;2023-04-26T11:26:54;98431.66;;;7.34;74.19
17505;BME280;8870;50.950;11.762;2023-04-26T11:32:14;98439.53;;;7.26;72.03
17505;BME280;8870;50.950;11.762;2023-04-26T11:37:46;98420.50;;;7.49;82.73
17505;BME280;8870;50.950;11.762;2023-04-26T11:43:07;98425.44;;;7.53;84.04
17505;BME280;8870;50.950;11.762;2023-04-26T11:48:43;98426.31;;;7.34;83.81
17505;BME280;8870;50.950;11.762;2023-04-26T11:54:02;98417.69;;;7.50;87.99
17505;BME280;8870;50.950;11.762;2023-04-26T11:59:33;98421.75;;;7.54;82.77
17505;BME280;8870;50.950;11.762;2023-04-26T12:05:07;98408.69;;;8.09;74.06
17505;BME280;8870;50.950;11.762;2023-04-26T12:10:27;98413.94;;;8.48;69.21
17505;BME280;8870;50.950;11.762;2023-04-26T12:15:58;98428.44;;;8.08;62.53
17505;BME280;8870;50.950;11.762;2023-04-26T12:21:42;98431.31;;;7.96;65.29
17505;BME280;8870;50.950;11.762;2023-04-26T12:27:19;98430.75;;;8.02;65.75
17505;BME280;8870;50.950;11.762;2023-04-26T12:32:38;98410.56;;;7.98;64.54
17505;BME280;8870;50.950;11.762;2023-04-26T12:38:19;98419.31;;;8.00;64.33
17505;BME280;8870;50.950;11.762;2023-04-26T12:43:38;98413.69;;;7.84;62.24
17505;BME280;8870;50.950;11.762;2023-04-26T12:49:09;98420.88;;;7.93;66.44
17505;BME280;8870;50.950;11.762;2023-04-26T12:54:29;98423.78;;;8.10;67.85
17505;BME280;8870;50.950;11.762;2023-04-26T13:00:01;98411.72;;;8.24;68.04
17505;BME280;8870;50.950;11.762;2023-04-26T13:05:19;98412.00;;;8.30;64.25
17505;BME280;8870;50.950;11.762;2023-04-26T13:10:54;98421.97;;;8.58;68.95
17505;BME280;8870;50.950;11.762;2023-04-26T13:16:14;98425.25;;;8.79;66.96
17505;BME280;8870;50.950;11.762;2023-04-26T13:21:46;98423.47;;;8.88;63.67
17505;BME280;8870;50.950;11.762;2023-04-26T13:27:07;98424.97;;;9.01;64.49
17505;BME280;8870;50.950;11.762;2023-04-26T13:32:39;98429.06;;;8.77;65.59
17505;BME280;8870;50.950;11.762;2023-04-26T13:37:58;98433.75;;;8.75;69.50
17505;BME280;8870;50.950;11.762;2023-04-26T13:43:34;98417.88;;;8.54;65.36
17505;BME280;8870;50.950;11.762;2023-04-26T13:48:54;98424.44;;;8.31;66.10
17505;BME280;8870;50.950;11.762;2023-04-26T13:54:26;98416.19;;;8.53;68.47
17505;BME280;8870;50.950;11.762;2023-04-26T13:59:46;98425.31;;;8.60;66.45
17505;BME280;8870;50.950;11.762;2023-04-26T14:05:21;98426.53;;;8.38;63.67
17505;BME280;8870;50.950;11.762;2023-04-26T14:10:39;98433.69;;;8.47;69.07
17505;BME280;8870;50.950;11.762;2023-04-26T14:16:12;98427.50;;;8.46;65.35
17505;BME280;8870;50.950;11.762;2023-04-26T14:21:31;98428.88;;;8.60;64.24
17505;BME280;8870;50.950;11.762;2023-04-26T14:27:02;98442.09;;;9.18;65.53
17505;BME280;8870;50.950;11.762;2023-04-26T14:32:23;98430.53;;;9.53;63.18
17505;BME280;8870;50.950;11.762;2023-04-26T14:37:54;98421.63;;;9.35;59.30
17505;BME280;8870;50.950;11.762;2023-04-26T14:43:12;98423.53;;;9.43;62.98
17505;BME280;8870;50.950;11.762;2023-04-26T14:48:45;98426.31;;;9.33;62.76
17505;BME280;8870;50.950;11.762;2023-04-26T14:54:04;98426.91;;;9.27;63.91
17505;BME280;8870;50.950;11.762;2023-04-26T14:59:36;98433.50;;;9.14;63.02
17505;BME280;8870;50.950;11.762;2023-04-26T15:04:56;98442.13;;;9.36;60.57
17505;BME280;8870;50.950;11.762;2023-04-26T15:10:29;98444.56;;;9.65;63.16
17505;BME280;8870;50.950;11.762;2023-04-26T15:15:47;98441.41;;;8.98;60.52
17505;BME280;8870;50.950;11.762;2023-04-26T15:21:24;98441.94;;;8.73;60.83
17505;BME280;8870;50.950;11.762;2023-04-26T15:26:43;98432.31;;;8.81;62.95
17505;BME280;8870;50.950;11.762;2023-04-26T15:32:14;98431.16;;;8.55;61.24
17505;BME280;8870;50.950;11.762;2023-04-26T15:37:37;98439.69;;;8.31;60.23
17505;BME280;8870;50.950;11.762;2023-04-26T15:43:09;98426.94;;;8.43;64.44
17505;BME280;8870;50.950;11.762;2023-04-26T15:48:34;98433.88;;;8.36;64.31
17505;BME280;8870;50.950;11.762;2023-04-26T15:54:07;98431.50;;;8.32;64.63
17505;BME280;8870;50.950;11.762;2023-04-26T15:59:26;98429.28;;;8.18;62.63
17505;BME280;8870;50.950;11.762;2023-04-26T16:04:57;98433.81;;;8.17;62.18
17505;BME280;8870;50.950;11.762;2023-04-26T16:10:18;98429.94;;;8.30;63.32
17505;BME280;8870;50.950;11.762;2023-04-26T16:15:53;98436.16;;;8.30;66.02
17505;BME280;8870;50.950;11.762;2023-04-26T16:21:12;98432.53;;;8.22;64.69
17505;BME280;8870;50.950;11.762;2023-04-26T16:26:45;98417.97;;;8.24;64.51
17505;BME280;8870;50.950;11.762;2023-04-26T16:32:04;98414.47;;;8.14;67.27
17505;BME280;8870;50.950;11.762;2023-04-26T16:37:35;98418.84;;;8.15;67.16
17505;BME280;8870;50.950;11.762;2023-04-26T16:42:57;98412.06;;;8.11;69.30
17505;BME280;8870;50.950;11.762;2023-04-26T16:48:31;98412.34;;;8.17;67.63
17505;BME280;8870;50.950;11.762;2023-04-26T16:53:49;98424.50;;;8.12;70.41
17505;BME280;8870;50.950;11.762;2023-04-26T16:59:23;98423.97;;;7.98;69.77
17505;BME280;8870;50.950;11.762;2023-04-26T17:04:42;98422.59;;;7.84;73.62
17505;BME280;8870;50.950;11.762;2023-04-26T17:10:14;98419.31;;;8.00;70.17
17505;BME280;8870;50.950;11.762;2023-04-26T17:15:34;98426.47;;;8.20;67.78
17505;BME280;8870;50.950;11.762;2023-04-26T17:21:07;98428.31;;;8.09;67.91
17505;BME280;8870;50.950;11.762;2023-04-26T17:26:25;98431.84;;;8.10;69.38
17505;BME280;8870;50.950;11.762;2023-04-26T17:31:58;98438.41;;;7.88;67.20
17505;BME280;8870;50.950;11.762;2023-04-26T17:37:17;98442.50;;;7.72;70.65
17505;BME280;8870;50.950;11.762;2023-04-26T17:42:49;98448.13;;;7.59;71.71
17505;BME280;8870;50.950;11.762;2023-04-26T17:48:23;98445.59;;;7.48;71.35
17505;BME280;8870;50.950;11.762;2023-04-26T17:53:43;98447.16;;;7.40;73.67
17505;BME280;8870;50.950;11.762;2023-04-26T17:59:14;98452.50;;;7.31;73.10
17505;BME280;8870;50.950;11.762;2023-04-26T18:04:34;98460.56;;;7.21;77.86
17505;BME280;8870;50.950;11.762;2023-04-26T18:10:08;98457.28;;;7.07;80.88
17505;BME280;8870;50.950;11.762;2023-04-26T18:15:27;98466.16;;;6.98;88.26
17505;BME280;8870;50.950;11.762;2023-04-26T18:21:00;98464.84;;;6.83;87.36
17505;BME280;8870;50.950;11.762;2023-04-26T18:26:19;98471.72;;;6.75;86.12
17505;BME280;8870;50.950;11.762;2023-04-26T18:31:53;98480.28;;;6.69;89.08
17505;BME280;8870;50.950;11.762;2023-04-26T18:37:14;98489.72;;;6.63;88.51
17505;BME280;8870;50.950;11.762;2023-04-26T18:42:46;98490.38;;;6.56;90.37
17505;BME280;8870;50.950;11.762;2023-04-26T18:48:05;98486.16;;;6.53;92.46
17505;BME280;8870;50.950;11.762;2023-04-26T18:53:40;98494.84;;;6.45;97.04
17505;BME280;8870;50.950;11.762;2023-04-26T18:59:06;98499.34;;;6.45;98.21
17505;BME280;8870;50.950;11.762;2023-04-26T19:04:39;98503.44;;;6.49;100.00
17505;BME280;8870;50.950;11.762;2023-04-26T19:10:01;98512.84;;;6.43;100.00
17505;BME280;8870;50.950;11.762;2023-04-26T19:15:33;98515.81;;;6.40;100.00
17505;BME280;8870;50.950;11.762;2023-04-26T19:20:51;98519.25;;;6.31;100.00
17505;BME280;8870;50.950;11.762;2023-04-26T19:26:25;98514.69;;;6.22;100.00
17505;BME280;8870;50.950;11.762;2023-04-26T19:31:44;98521.09;;;6.09;100.00
17505;BME280;8870;50.950;11.762;2023-04-26T19:37:16;98513.22;;;6.08;100.00
17505;BME280;8870;50.950;11.762;2023-04-26T19:42:37;98514.91;;;6.09;100.00
17505;BME280;8870;50.950;11.762;2023-04-26T19:48:08;98518.56;;;6.08;100.00
17505;BME280;8870;50.950;11.762;2023-04-26T19:53:27;98518.22;;;6.01;100.00
17505;BME280;8870;50.950;11.762;2023-04-26T19:59:01;98521.50;;;5.93;100.00
17505;BME280;8870;50.950;11.762;2023-04-26T20:04:22;98529.59;;;5.82;100.00
17505;BME280;8870;50.950;11.762;2023-04-26T20:09:55;98518.38;;;5.67;100.00
17505;BME280;8870;50.950;11.762;2023-04-26T20:21:08;98520.34;;;5.53;100.00
17505;BME280;8870;50.950;11.762;2023-04-26T20:26:33;98521.84;;;5.46;100.00
17505;BME280;8870;50.950;11.762;2023-04-26T20:32:05;98522.47;;;5.38;100.00
17505;BME280;8870;50.950;11.762;2023-04-26T20:37:26;98524.91;;;5.30;100.00
17505;BME280;8870;50.950;11.762;2023-04-26T20:42:57;98531.88;;;5.21;100.00
17505;BME280;8870;50.950;11.762;2023-04-26T20:48:15;98531.63;;;5.13;100.00
17505;BME280;8870;50.950;11.762;2023-04-26T20:53:49;98533.09;;;5.06;100.00
17505;BME280;8870;50.950;11.762;2023-04-26T20:59:20;98532.59;;;5.01;100.00
17505;BME280;8870;50.950;11.762;2023-04-26T21:04:38;98536.75;;;4.93;100.00
17505;BME280;8870;50.950;11.762;2023-04-26T21:10:12;98544.25;;;4.88;100.00
17505;BME280;8870;50.950;11.762;2023-04-26T21:15:32;98536.03;;;4.80;100.00
17505;BME280;8870;50.950;11.762;2023-04-26T21:21:05;98544.53;;;4.74;100.00
17505;BME280;8870;50.950;11.762;2023-04-26T21:26:26;98540.38;;;4.70;100.00
17505;BME280;8870;50.950;11.762;2023-04-26T21:32:02;98542.69;;;4.63;100.00
17505;BME280;8870;50.950;11.762;2023-04-26T21:37:23;98538.91;;;4.54;100.00
17505;BME280;8870;50.950;11.762;2023-04-26T21:42:51;98544.63;;;4.50;100.00
17505;BME280;8870;50.950;11.762;2023-04-26T21:48:22;98552.16;;;4.44;100.00
17505;BME280;8870;50.950;11.762;2023-04-26T21:53:40;98548.22;;;4.37;100.00
17505;BME280;8870;50.950;11.762;2023-04-26T21:59:15;98553.19;;;4.30;100.00
17505;BME280;8870;50.950;11.762;2023-04-26T22:04:33;98552.81;;;4.24;100.00
17505;BME280;8870;50.950;11.762;2023-04-26T22:10:05;98542.75;;;4.16;100.00
17505;BME280;8870;50.950;11.762;2023-04-26T22:15:26;98538.63;;;4.12;100.00
17505;BME280;8870;50.950;11.762;2023-04-26T22:20:57;98553.41;;;4.05;100.00
17505;BME280;8870;50.950;11.762;2023-04-26T22:26:15;98553.63;;;4.01;100.00
17505;BME280;8870;50.950;11.762;2023-04-26T22:31:50;98560.88;;;3.99;100.00
17505;BME280;8870;50.950;11.762;2023-04-26T22:37:09;98557.81;;;3.93;100.00
17505;BME280;8870;50.950;11.762;2023-04-26T22:42:40;98556.25;;;3.90;100.00
17505;BME280;8870;50.950;11.762;2023-04-26T22:48:02;98556.69;;;3.84;100.00
17505;BME280;8870;50.950;11.762;2023-04-26T22:53:33;98558.34;;;3.74;100.00
17505;BME280;8870;50.950;11.762;2023-04-26T22:58:58;98561.22;;;3.70;100.00
17505;BME280;8870;50.950;11.762;2023-04-26T23:04:31;98555.28;;;3.67;100.00
17505;BME280;8870;50.950;11.762;2023-04-26T23:09:50;98565.56;;;3.60;100.00
17505;BME280;8870;50.950;11.762;2023-04-26T23:15:21;98550.66;;;3.58;100.00
17505;BME280;8870;50.950;11.762;2023-04-26T23:20:42;98562.75;;;3.50;100.00
17505;BME280;8870;50.950;11.762;2023-04-26T23:26:14;98563.06;;;3.46;100.00
17505;BME280;8870;50.950;11.762;2023-04-26T23:31:32;98569.72;;;3.40;100.00
17505;BME280;8870;50.950;11.762;2023-04-26T23:37:06;98569.06;;;3.36;100.00
17505;BME280;8870;50.950;11.762;2023-04-26T23:42:24;98572.91;;;3.32;100.00
17505;BME280;8870;50.950;11.762;2023-04-26T23:47:55;98577.63;;;3.29;100.00
17505;BME280;8870;50.950;11.762;2023-04-26T23:53:16;98572.72;;;3.22;100.00
17505;BME280;8870;50.950;11.762;2023-04-26T23:58:48;98579.22;;;3.18;100.00
